Nearby METAR Reports

 

KSJC - San Jose, California, USA
Distance from station: NE 9mi, 14km
Updated: Thu, 31-Jul-2014 9:53am PDT
Partly cloudy
Partly cloudy
 Wind from NW
Wind: NW 5 mph , 7 km/h
Temperature: 66°F , 19°C
Dew Point: 59°F , 15°C
Humidity: 78%
Barometer: 29.98 inHg , 1015.2 hPa
Clouds: Partly cloudy
Visibility: 10 miles , 16 km
Cloud details: Few Clouds 900 ft
Partly cloudy 16000 ft
2014/07/31 16:53 KSJC 311653Z 31004KT 10SM FEW009 SCT160 19/15 A2998 RMK AO2 SLP151 T01940150
KNUQ - Moffett Nas/Mtn, California, USA
Distance from station: N 9mi, 14km
Updated: Thu, 31-Jul-2014 10:03am PDT
Few Clouds
Few Clouds
 Wind from N
Wind: N 7 mph , 11 km/h
Temperature: 66°F , 19°C
Dew Point: 57°F , 14°C
Humidity: 73%
Barometer: 29.99 inHg , 1015.6 hPa
Clouds: Few Clouds
Visibility: 10 miles , 16 km
Cloud details: Few Clouds 1100 ft
2014/07/31 17:03 KNUQ 311703Z 01006KT 10SM FEW011 19/14 A2999 RMK AO2
 
KPAO - Palo Alto, California, USA
Distance from station: NNW 14mi, 23km
Updated: Thu, 31-Jul-2014 9:47am PDT
Mostly cloudy
Mostly cloudy
 Wind from NNE
Wind: NNE 6 mph , 9 km/h
Temperature: 64°F , 18°C
Dew Point: 59°F , 15°C
Humidity: 83%
Barometer: 29.99 inHg , 1015.6 hPa
Clouds: Mostly cloudy
Visibility: 8 miles , 13 km
Cloud details: Mostly cloudy 1000 ft
2014/07/31 16:47 KPAO 311647Z 03005KT 8SM BKN010 18/15 A2999
KRHV - San Jose/Reid, California, USA
Distance from station: ENE 12mi, 19km
Updated: Thu, 31-Jul-2014 9:47am PDT
Few Clouds
Few Clouds
 Wind from varies
Wind: varies 6 mph , 9 km/h
Temperature: 73°F , 23°C
Dew Point: 57°F , 14°C
Humidity: 57%
Barometer: 30.00 inHg , 1015.9 hPa
Clouds: Few Clouds
Visibility: 10 miles , 16 km
Cloud details: Few Clouds 15000 ft
2014/07/31 16:47 KRHV 311647Z VRB05KT 10SM FEW150 23/14 A3000
 
KOAK - Oakland, California, USA
Distance from station: NNW 31mi, 50km
Updated: Thu, 31-Jul-2014 9:53am PDT
Overcast
Overcast
 Wind from NW
Wind: NW 5 mph , 7 km/h
Temperature: 63°F , 17°C
Dew Point: 55°F , 13°C
Humidity: 77%
Barometer: 29.99 inHg , 1015.6 hPa
Clouds: Overcast
Visibility: 10 miles , 16 km
Cloud details: Overcast 900 ft
2014/07/31 16:53 KOAK 311653Z 32004KT 10SM OVC009 17/13 A2999 RMK AO2 SLP155 T01720133
KSQL - San Carlos Airpo, California, USA
Distance from station: NW 21mi, 34km
Updated: Thu, 31-Jul-2014 9:50am PDT
Mostly cloudy
Mostly cloudy
 Wind from calm
Wind: Calm
Temperature: 64°F , 18°C
Dew Point: 59°F , 15°C
Humidity: 83%
Barometer: 29.99 inHg , 1015.6 hPa
Clouds: Mostly cloudy
Visibility: 10 miles , 16 km
Cloud details: Mostly cloudy 1400 ft
Mostly cloudy 20000 ft
2014/07/31 16:50 KSQL 311650Z 00000KT 10SM BKN014 BKN200 18/15 A2999
 
KSFO - San Francisco, California, USA
Distance from station: NW 30mi, 49km
Updated: Thu, 31-Jul-2014 9:56am PDT
Mostly cloudy
Mostly cloudy
 Wind from N
Wind: N 8 mph , 13 km/h
Temperature: 64°F , 18°C
Dew Point: 59°F , 15°C
Humidity: 83%
Barometer: 29.99 inHg , 1015.6 hPa
Clouds: Mostly cloudy
Visibility: 10 miles , 16 km
Cloud details: Few Clouds 500 ft
Partly cloudy 1000 ft
Mostly cloudy 18000 ft
2014/07/31 16:56 KSFO 311656Z 35007KT 10SM FEW005 SCT010 BKN180 18/15 A2999 RMK AO2 SLP154 T01830150
KE16 - San Martin, California, USA
Distance from station: ESE 27mi, 43km
Updated: Thu, 31-Jul-2014 10:15am PDT
Clear
Clear
 Wind from calm
Wind: Calm
Temperature: 70°F , 21°C
Dew Point: 57°F , 14°C
Humidity: 64%
Barometer: 29.99 inHg , 1015.6 hPa
Clouds: Clear
Visibility: 10 miles , 16 km
2014/07/31 17:15 KE16 311715Z AUTO 00000KT 10SM CLR 21/14 A2999 RMK AO2
 
KWVI - Watsonville, California, USA
Distance from station: SSE 27mi, 44km
Updated: Thu, 31-Jul-2014 10:26am PDT
Overcast
Overcast
 Wind from S
Wind: S 6 mph , 9 km/h
Temperature: 66°F , 19°C
Dew Point: 57°F , 14°C
Humidity: 73%
Barometer: 30.00 inHg , 1015.9 hPa
Clouds: Overcast
Visibility: 10 miles , 16 km
Cloud details: Overcast 600 ft
2014/07/31 17:26 KWVI 311726Z AUTO 17005KT 10SM OVC006 19/14 A3000 RMK AO2 T01940144
KHAF - Half Moon Bay, California, USA
Distance from station: WNW 31mi, 50km
Updated: Thu, 31-Jul-2014 10:15am PDT
Mist, Overcast
Mist, Overcast
 Wind from WSW
Wind: WSW 3 mph , 6 km/h
Temperature: 57°F , 14°C
Dew Point: 57°F , 14°C
Humidity: 100%
Barometer: 30.01 inHg , 1016.3 hPa
Summary: Mist
Clouds: Overcast
Visibility: 4 miles , 6 km
Cloud details: Overcast 400 ft
2014/07/31 17:15 KHAF 311715Z AUTO 24003KT 4SM BR OVC004 14/14 A3001 RMK AO2
 
KHWD - Hayward, California, USA
Distance from station: N 28mi, 44km
Updated: Thu, 31-Jul-2014 10:08am PDT
Partly cloudy
Partly cloudy
 Wind from WNW
Wind: WNW 9 mph , 15 km/h
Temperature: 66°F , 19°C
Dew Point: 59°F , 15°C
Humidity: 78%
Barometer: 29.99 inHg , 1015.6 hPa
Clouds: Partly cloudy
Visibility: 10 miles , 16 km
Cloud details: Partly cloudy 1200 ft
2014/07/31 17:08 KHWD 311708Z 29008KT 10SM SCT012 19/15 A2999 RMK AO2
KLVK - Livermore, California, USA
Distance from station: NNE 31mi, 51km
Updated: Thu, 31-Jul-2014 9:53am PDT
Clear
Clear
 Wind from varies
Wind: varies 5 mph , 7 km/h
Temperature: 72°F , 22°C
Dew Point: 57°F , 14°C
Humidity: 61%
Barometer: 29.96 inHg , 1014.6 hPa
Clouds: Clear
Visibility: 10 miles , 16 km
2014/07/31 16:53 KLVK 311653Z VRB04KT 10SM CLR 22/14 A2996 RMK AO2 SLP142 T02220144